sensor_id;sensor_type;location;lat;lon;timestamp;temperature;humidity
67974;DHT22;54756;51.140;6.952;2022-11-15T00:00:39;10.50;92.70
67974;DHT22;54756;51.140;6.952;2022-11-15T00:02:40;10.50;92.50
67974;DHT22;54756;51.140;6.952;2022-11-15T00:04:40;10.50;92.50
67974;DHT22;54756;51.140;6.952;2022-11-15T00:06:41;10.60;92.70
67974;DHT22;54756;51.140;6.952;2022-11-15T00:08:41;10.70;92.80
67974;DHT22;54756;51.140;6.952;2022-11-15T00:10:42;10.60;92.60
67974;DHT22;54756;51.140;6.952;2022-11-15T00:12:43;10.70;92.60
67974;DHT22;54756;51.140;6.952;2022-11-15T00:14:44;10.70;92.90
67974;DHT22;54756;51.140;6.952;2022-11-15T00:16:44;10.70;92.90
67974;DHT22;54756;51.140;6.952;2022-11-15T00:18:45;10.80;92.90
67974;DHT22;54756;51.140;6.952;2022-11-15T00:20:45;10.80;92.70
67974;DHT22;54756;51.140;6.952;2022-11-15T00:22:46;10.80;92.60
67974;DHT22;54756;51.140;6.952;2022-11-15T00:24:46;10.90;92.50
67974;DHT22;54756;51.140;6.952;2022-11-15T00:26:47;10.90;92.60
67974;DHT22;54756;51.140;6.952;2022-11-15T00:28:47;10.90;92.50
67974;DHT22;54756;51.140;6.952;2022-11-15T00:30:48;10.90;92.50
67974;DHT22;54756;51.140;6.952;2022-11-15T00:32:49;10.90;92.50
67974;DHT22;54756;51.140;6.952;2022-11-15T00:34:49;10.90;92.50
67974;DHT22;54756;51.140;6.952;2022-11-15T00:36:50;10.90;92.90
67974;DHT22;54756;51.140;6.952;2022-11-15T00:38:50;11.00;92.50
67974;DHT22;54756;51.140;6.952;2022-11-15T00:40:51;11.00;92.60
67974;DHT22;54756;51.140;6.952;2022-11-15T00:42:51;11.00;92.50
67974;DHT22;54756;51.140;6.952;2022-11-15T00:44:52;11.00;92.50
67974;DHT22;54756;51.140;6.952;2022-11-15T00:46:52;11.10;92.60
67974;DHT22;54756;51.140;6.952;2022-11-15T00:48:53;11.10;92.50
67974;DHT22;54756;51.140;6.952;2022-11-15T00:50:53;11.10;92.60
67974;DHT22;54756;51.140;6.952;2022-11-15T00:52:54;11.10;92.60
67974;DHT22;54756;51.140;6.952;2022-11-15T00:54:54;11.20;92.70
67974;DHT22;54756;51.140;6.952;2022-11-15T00:56:55;11.20;92.60
67974;DHT22;54756;51.140;6.952;2022-11-15T00:58:56;11.20;92.60
67974;DHT22;54756;51.140;6.952;2022-11-15T01:00:56;11.30;92.60
67974;DHT22;54756;51.140;6.952;2022-11-15T01:02:57;11.30;92.50
67974;DHT22;54756;51.140;6.952;2022-11-15T01:04:57;11.30;92.60
67974;DHT22;54756;51.140;6.952;2022-11-15T01:06:58;11.30;92.40
67974;DHT22;54756;51.140;6.952;2022-11-15T01:08:58;11.30;92.70
67974;DHT22;54756;51.140;6.952;2022-11-15T01:11:03;11.30;92.30
67974;DHT22;54756;51.140;6.952;2022-11-15T01:13:04;11.40;92.50
67974;DHT22;54756;51.140;6.952;2022-11-15T01:15:05;11.40;92.40
67974;DHT22;54756;51.140;6.952;2022-11-15T01:17:05;11.40;92.40
67974;DHT22;54756;51.140;6.952;2022-11-15T01:19:06;11.40;92.40
67974;DHT22;54756;51.140;6.952;2022-11-15T01:21:08;11.40;92.40
67974;DHT22;54756;51.140;6.952;2022-11-15T01:23:10;11.40;92.30
67974;DHT22;54756;51.140;6.952;2022-11-15T01:25:10;11.40;92.50
67974;DHT22;54756;51.140;6.952;2022-11-15T01:27:11;11.40;92.40
67974;DHT22;54756;51.140;6.952;2022-11-15T01:29:11;11.40;92.40
67974;DHT22;54756;51.140;6.952;2022-11-15T01:31:16;11.40;92.40
67974;DHT22;54756;51.140;6.952;2022-11-15T01:33:16;11.40;92.30
67974;DHT22;54756;51.140;6.952;2022-11-15T01:35:17;11.40;92.20
67974;DHT22;54756;51.140;6.952;2022-11-15T01:37:17;11.40;92.20
67974;DHT22;54756;51.140;6.952;2022-11-15T01:39:18;11.50;92.40
67974;DHT22;54756;51.140;6.952;2022-11-15T01:41:22;11.40;92.40
67974;DHT22;54756;51.140;6.952;2022-11-15T01:43:30;11.50;92.40
67974;DHT22;54756;51.140;6.952;2022-11-15T01:45:30;11.50;92.40
67974;DHT22;54756;51.140;6.952;2022-11-15T01:47:34;11.50;92.40
67974;DHT22;54756;51.140;6.952;2022-11-15T01:49:38;11.50;92.30
67974;DHT22;54756;51.140;6.952;2022-11-15T01:51:39;11.50;92.30
67974;DHT22;54756;51.140;6.952;2022-11-15T01:53:42;11.50;92.30
67974;DHT22;54756;51.140;6.952;2022-11-15T01:55:44;11.50;92.30
67974;DHT22;54756;51.140;6.952;2022-11-15T01:57:47;11.50;92.50
67974;DHT22;54756;51.140;6.952;2022-11-15T01:59:49;11.60;92.50
67974;DHT22;54756;51.140;6.952;2022-11-15T02:01:50;11.60;92.50
67974;DHT22;54756;51.140;6.952;2022-11-15T02:04:00;11.60;92.50
67974;DHT22;54756;51.140;6.952;2022-11-15T02:06:03;11.60;92.30
67974;DHT22;54756;51.140;6.952;2022-11-15T02:08:06;11.60;92.30
67974;DHT22;54756;51.140;6.952;2022-11-15T02:12:10;11.60;92.30
67974;DHT22;54756;51.140;6.952;2022-11-15T02:14:13;11.60;92.30
67974;DHT22;54756;51.140;6.952;2022-11-15T02:18:49;11.60;92.50
67974;DHT22;54756;51.140;6.952;2022-11-15T02:30:41;11.70;92.50
67974;DHT22;54756;51.140;6.952;2022-11-15T02:32:54;11.70;92.40
67974;DHT22;54756;51.140;6.952;2022-11-15T02:35:17;11.70;92.40
67974;DHT22;54756;51.140;6.952;2022-11-15T02:42:04;11.70;92.50
67974;DHT22;54756;51.140;6.952;2022-11-15T02:44:34;11.70;92.50
67974;DHT22;54756;51.140;6.952;2022-11-15T02:48:56;11.80;92.50
67974;DHT22;54756;51.140;6.952;2022-11-15T02:50:58;11.70;92.50
67974;DHT22;54756;51.140;6.952;2022-11-15T02:52:59;11.70;92.50
67974;DHT22;54756;51.140;6.952;2022-11-15T02:55:00;11.80;92.70
67974;DHT22;54756;51.140;6.952;2022-11-15T02:57:10;11.80;92.70
67974;DHT22;54756;51.140;6.952;2022-11-15T02:59:37;11.80;92.60
67974;DHT22;54756;51.140;6.952;2022-11-15T03:13:25;11.80;92.40
67974;DHT22;54756;51.140;6.952;2022-11-15T03:15:32;11.80;92.40
67974;DHT22;54756;51.140;6.952;2022-11-15T03:17:43;11.80;92.40
67974;DHT22;54756;51.140;6.952;2022-11-15T03:19:49;11.80;92.40
67974;DHT22;54756;51.140;6.952;2022-11-15T03:21:51;11.80;92.50
67974;DHT22;54756;51.140;6.952;2022-11-15T03:23:54;11.80;92.50
67974;DHT22;54756;51.140;6.952;2022-11-15T03:25:57;11.80;92.60
67974;DHT22;54756;51.140;6.952;2022-11-15T03:28:01;11.80;92.70
67974;DHT22;54756;51.140;6.952;2022-11-15T03:30:06;11.80;92.70
67974;DHT22;54756;51.140;6.952;2022-11-15T03:32:19;11.80;92.60
67974;DHT22;54756;51.140;6.952;2022-11-15T03:34:31;11.80;92.60
67974;DHT22;54756;51.140;6.952;2022-11-15T03:36:33;11.80;92.60
67974;DHT22;54756;51.140;6.952;2022-11-15T03:38:35;11.80;92.50
67974;DHT22;54756;51.140;6.952;2022-11-15T03:41:16;11.80;92.40
67974;DHT22;54756;51.140;6.952;2022-11-15T03:43:50;11.80;92.50
67974;DHT22;54756;51.140;6.952;2022-11-15T03:45:57;11.80;92.40
67974;DHT22;54756;51.140;6.952;2022-11-15T03:48:05;11.80;92.70
67974;DHT22;54756;51.140;6.952;2022-11-15T03:50:11;11.80;92.70
67974;DHT22;54756;51.140;6.952;2022-11-15T03:52:12;11.80;92.70
67974;DHT22;54756;51.140;6.952;2022-11-15T03:54:17;11.70;92.70
67974;DHT22;54756;51.140;6.952;2022-11-15T03:56:17;11.80;92.80
67974;DHT22;54756;51.140;6.952;2022-11-15T03:58:18;11.70;92.80
67974;DHT22;54756;51.140;6.952;2022-11-15T04:00:19;11.80;93.00
67974;DHT22;54756;51.140;6.952;2022-11-15T04:02:20;11.80;92.90
67974;DHT22;54756;51.140;6.952;2022-11-15T04:04:20;11.80;93.20
67974;DHT22;54756;51.140;6.952;2022-11-15T04:06:21;11.80;92.70
67974;DHT22;54756;51.140;6.952;2022-11-15T04:08:21;11.80;92.70
67974;DHT22;54756;51.140;6.952;2022-11-15T04:10:22;11.80;92.80
67974;DHT22;54756;51.140;6.952;2022-11-15T04:12:22;11.80;92.90
67974;DHT22;54756;51.140;6.952;2022-11-15T04:14:32;11.80;93.30
67974;DHT22;54756;51.140;6.952;2022-11-15T04:16:32;11.80;93.20
67974;DHT22;54756;51.140;6.952;2022-11-15T04:18:33;11.80;93.40
67974;DHT22;54756;51.140;6.952;2022-11-15T04:20:33;11.80;93.50
67974;DHT22;54756;51.140;6.952;2022-11-15T04:22:54;11.80;93.70
67974;DHT22;54756;51.140;6.952;2022-11-15T04:25:13;11.80;93.70
67974;DHT22;54756;51.140;6.952;2022-11-15T04:27:14;11.70;93.90
67974;DHT22;54756;51.140;6.952;2022-11-15T04:29:14;11.70;94.10
67974;DHT22;54756;51.140;6.952;2022-11-15T04:31:33;11.70;94.30
67974;DHT22;54756;51.140;6.952;2022-11-15T04:33:34;11.70;94.40
67974;DHT22;54756;51.140;6.952;2022-11-15T04:35:34;11.70;94.40
67974;DHT22;54756;51.140;6.952;2022-11-15T04:37:35;11.70;94.40
67974;DHT22;54756;51.140;6.952;2022-11-15T04:39:35;11.60;94.30
67974;DHT22;54756;51.140;6.952;2022-11-15T04:41:36;11.60;94.30
67974;DHT22;54756;51.140;6.952;2022-11-15T04:43:37;11.60;94.50
67974;DHT22;54756;51.140;6.952;2022-11-15T04:45:37;11.60;94.00
67974;DHT22;54756;51.140;6.952;2022-11-15T04:47:38;11.60;94.20
67974;DHT22;54756;51.140;6.952;2022-11-15T04:49:38;11.70;94.30
67974;DHT22;54756;51.140;6.952;2022-11-15T04:51:39;11.60;94.20
67974;DHT22;54756;51.140;6.952;2022-11-15T04:53:39;11.60;94.10
67974;DHT22;54756;51.140;6.952;2022-11-15T04:55:40;11.60;94.20
67974;DHT22;54756;51.140;6.952;2022-11-15T04:57:44;11.70;94.40
67974;DHT22;54756;51.140;6.952;2022-11-15T04:59:44;11.70;94.30
67974;DHT22;54756;51.140;6.952;2022-11-15T05:01:45;11.70;94.20
67974;DHT22;54756;51.140;6.952;2022-11-15T05:03:45;11.70;94.20
67974;DHT22;54756;51.140;6.952;2022-11-15T05:06:05;11.80;94.30
67974;DHT22;54756;51.140;6.952;2022-11-15T05:08:07;11.70;94.10
67974;DHT22;54756;51.140;6.952;2022-11-15T05:10:08;11.70;94.00
67974;DHT22;54756;51.140;6.952;2022-11-15T05:12:08;11.80;94.10
67974;DHT22;54756;51.140;6.952;2022-11-15T05:14:09;11.80;94.10
67974;DHT22;54756;51.140;6.952;2022-11-15T05:16:10;11.80;94.10
67974;DHT22;54756;51.140;6.952;2022-11-15T05:18:10;11.80;94.00
67974;DHT22;54756;51.140;6.952;2022-11-15T05:20:11;11.80;94.00
67974;DHT22;54756;51.140;6.952;2022-11-15T05:22:12;11.80;94.00
67974;DHT22;54756;51.140;6.952;2022-11-15T05:24:12;11.80;94.00
67974;DHT22;54756;51.140;6.952;2022-11-15T05:26:15;11.80;94.00
67974;DHT22;54756;51.140;6.952;2022-11-15T05:28:16;11.80;94.00
67974;DHT22;54756;51.140;6.952;2022-11-15T05:30:17;11.90;94.00
67974;DHT22;54756;51.140;6.952;2022-11-15T05:32:17;11.90;93.90
67974;DHT22;54756;51.140;6.952;2022-11-15T05:34:18;11.90;93.90
67974;DHT22;54756;51.140;6.952;2022-11-15T05:38:38;11.90;93.80
67974;DHT22;54756;51.140;6.952;2022-11-15T05:40:38;11.90;93.80
67974;DHT22;54756;51.140;6.952;2022-11-15T05:42:39;11.90;93.80
67974;DHT22;54756;51.140;6.952;2022-11-15T05:44:43;11.90;93.80
67974;DHT22;54756;51.140;6.952;2022-11-15T05:46:45;12.00;93.80
67974;DHT22;54756;51.140;6.952;2022-11-15T05:48:48;11.90;93.70
67974;DHT22;54756;51.140;6.952;2022-11-15T05:50:50;12.00;93.70
67974;DHT22;54756;51.140;6.952;2022-11-15T05:52:51;12.00;93.70
67974;DHT22;54756;51.140;6.952;2022-11-15T05:54:52;12.00;93.60
67974;DHT22;54756;51.140;6.952;2022-11-15T05:56:54;12.00;93.50
67974;DHT22;54756;51.140;6.952;2022-11-15T05:58:57;12.00;93.60
67974;DHT22;54756;51.140;6.952;2022-11-15T06:00:58;12.00;93.60
67974;DHT22;54756;51.140;6.952;2022-11-15T06:02:59;12.00;93.50
67974;DHT22;54756;51.140;6.952;2022-11-15T06:04:59;12.00;93.60
67974;DHT22;54756;51.140;6.952;2022-11-15T06:07:00;12.00;93.50
67974;DHT22;54756;51.140;6.952;2022-11-15T06:09:00;12.00;93.50
67974;DHT22;54756;51.140;6.952;2022-11-15T06:11:05;12.00;93.50
67974;DHT22;54756;51.140;6.952;2022-11-15T06:13:06;12.00;93.40
67974;DHT22;54756;51.140;6.952;2022-11-15T06:15:07;12.00;93.50
67974;DHT22;54756;51.140;6.952;2022-11-15T06:17:08;12.00;93.50
67974;DHT22;54756;51.140;6.952;2022-11-15T06:19:08;12.00;93.50
67974;DHT22;54756;51.140;6.952;2022-11-15T06:21:09;12.00;93.50
67974;DHT22;54756;51.140;6.952;2022-11-15T06:23:09;12.00;93.40
67974;DHT22;54756;51.140;6.952;2022-11-15T06:25:10;12.00;93.30
67974;DHT22;54756;51.140;6.952;2022-11-15T06:27:11;12.00;93.30
67974;DHT22;54756;51.140;6.952;2022-11-15T06:29:12;11.90;93.20
67974;DHT22;54756;51.140;6.952;2022-11-15T06:31:12;11.90;93.20
67974;DHT22;54756;51.140;6.952;2022-11-15T06:33:13;11.90;93.10
67974;DHT22;54756;51.140;6.952;2022-11-15T06:35:13;11.80;93.10
67974;DHT22;54756;51.140;6.952;2022-11-15T06:37:14;11.70;93.00
67974;DHT22;54756;51.140;6.952;2022-11-15T06:39:15;11.60;92.90
67974;DHT22;54756;51.140;6.952;2022-11-15T06:41:15;11.50;92.80
67974;DHT22;54756;51.140;6.952;2022-11-15T06:43:17;11.40;92.90
67974;DHT22;54756;51.140;6.952;2022-11-15T06:45:17;11.30;93.20
67974;DHT22;54756;51.140;6.952;2022-11-15T06:47:18;11.20;93.10
67974;DHT22;54756;51.140;6.952;2022-11-15T06:49:18;11.20;93.50
67974;DHT22;54756;51.140;6.952;2022-11-15T06:51:19;11.20;93.70
67974;DHT22;54756;51.140;6.952;2022-11-15T06:53:20;11.20;93.80
67974;DHT22;54756;51.140;6.952;2022-11-15T06:55:21;11.20;94.00
67974;DHT22;54756;51.140;6.952;2022-11-15T06:57:21;11.20;93.90
67974;DHT22;54756;51.140;6.952;2022-11-15T06:59:22;11.20;93.90
67974;DHT22;54756;51.140;6.952;2022-11-15T07:01:22;11.30;93.90
67974;DHT22;54756;51.140;6.952;2022-11-15T07:03:23;11.30;93.80
67974;DHT22;54756;51.140;6.952;2022-11-15T07:05:23;11.30;93.80
67974;DHT22;54756;51.140;6.952;2022-11-15T07:07:24;11.30;93.80
67974;DHT22;54756;51.140;6.952;2022-11-15T07:09:24;11.40;93.80
67974;DHT22;54756;51.140;6.952;2022-11-15T07:11:26;11.40;93.70
67974;DHT22;54756;51.140;6.952;2022-11-15T07:13:28;11.40;93.60
67974;DHT22;54756;51.140;6.952;2022-11-15T07:15:28;11.40;93.50
67974;DHT22;54756;51.140;6.952;2022-11-15T07:17:29;11.40;93.60
67974;DHT22;54756;51.140;6.952;2022-11-15T07:19:29;11.40;93.20
67974;DHT22;54756;51.140;6.952;2022-11-15T07:21:30;11.40;93.20
67974;DHT22;54756;51.140;6.952;2022-11-15T07:23:31;11.40;93.20
67974;DHT22;54756;51.140;6.952;2022-11-15T07:25:31;11.30;93.10
67974;DHT22;54756;51.140;6.952;2022-11-15T07:27:32;11.30;93.20
67974;DHT22;54756;51.140;6.952;2022-11-15T07:29:32;11.40;93.40
67974;DHT22;54756;51.140;6.952;2022-11-15T07:31:33;11.40;93.40
67974;DHT22;54756;51.140;6.952;2022-11-15T07:33:34;11.40;93.20
67974;DHT22;54756;51.140;6.952;2022-11-15T07:35:35;11.40;93.20
67974;DHT22;54756;51.140;6.952;2022-11-15T07:37:35;11.40;93.10
67974;DHT22;54756;51.140;6.952;2022-11-15T07:39:36;11.50;93.00
67974;DHT22;54756;51.140;6.952;2022-11-15T07:41:36;11.50;92.90
67974;DHT22;54756;51.140;6.952;2022-11-15T07:43:37;11.50;92.80
67974;DHT22;54756;51.140;6.952;2022-11-15T07:45:42;11.50;92.80
67974;DHT22;54756;51.140;6.952;2022-11-15T07:47:45;11.50;92.60
67974;DHT22;54756;51.140;6.952;2022-11-15T07:49:46;11.60;92.60
67974;DHT22;54756;51.140;6.952;2022-11-15T07:51:47;11.60;92.40
67974;DHT22;54756;51.140;6.952;2022-11-15T07:53:47;11.60;92.30
67974;DHT22;54756;51.140;6.952;2022-11-15T07:55:48;11.60;92.30
67974;DHT22;54756;51.140;6.952;2022-11-15T07:57:49;11.60;92.20
67974;DHT22;54756;51.140;6.952;2022-11-15T07:59:50;11.50;92.00
67974;DHT22;54756;51.140;6.952;2022-11-15T08:01:50;11.60;92.00
67974;DHT22;54756;51.140;6.952;2022-11-15T08:03:51;11.50;92.00
67974;DHT22;54756;51.140;6.952;2022-11-15T08:05:51;11.50;91.90
67974;DHT22;54756;51.140;6.952;2022-11-15T08:07:55;11.50;92.00
67974;DHT22;54756;51.140;6.952;2022-11-15T08:09:55;11.50;92.00
67974;DHT22;54756;51.140;6.952;2022-11-15T08:11:56;11.50;92.10
67974;DHT22;54756;51.140;6.952;2022-11-15T08:13:57;11.60;92.20
67974;DHT22;54756;51.140;6.952;2022-11-15T08:16:01;11.60;92.10
67974;DHT22;54756;51.140;6.952;2022-11-15T08:18:05;11.70;92.00
67974;DHT22;54756;51.140;6.952;2022-11-15T08:20:07;11.70;92.00
67974;DHT22;54756;51.140;6.952;2022-11-15T08:22:08;11.70;91.80
67974;DHT22;54756;51.140;6.952;2022-11-15T08:24:10;11.70;91.60
67974;DHT22;54756;51.140;6.952;2022-11-15T08:26:10;11.70;91.40
67974;DHT22;54756;51.140;6.952;2022-11-15T08:28:11;11.70;91.30
67974;DHT22;54756;51.140;6.952;2022-11-15T08:30:12;11.70;91.20
67974;DHT22;54756;51.140;6.952;2022-11-15T08:32:12;11.70;91.20
67974;DHT22;54756;51.140;6.952;2022-11-15T08:34:13;11.70;91.30
67974;DHT22;54756;51.140;6.952;2022-11-15T08:36:15;11.70;91.20
67974;DHT22;54756;51.140;6.952;2022-11-15T08:38:16;11.70;91.20
67974;DHT22;54756;51.140;6.952;2022-11-15T08:40:17;11.70;91.20
67974;DHT22;54756;51.140;6.952;2022-11-15T08:42:19;11.70;91.10
67974;DHT22;54756;51.140;6.952;2022-11-15T08:44:19;11.80;91.20
67974;DHT22;54756;51.140;6.952;2022-11-15T08:46:20;11.80;91.60
67974;DHT22;54756;51.140;6.952;2022-11-15T08:48:20;11.80;91.30
67974;DHT22;54756;51.140;6.952;2022-11-15T08:50:21;11.80;91.20
67974;DHT22;54756;51.140;6.952;2022-11-15T08:52:21;11.80;91.20
67974;DHT22;54756;51.140;6.952;2022-11-15T08:54:22;11.90;91.20
67974;DHT22;54756;51.140;6.952;2022-11-15T08:56:22;11.90;91.10
67974;DHT22;54756;51.140;6.952;2022-11-15T08:58:23;11.90;91.10
67974;DHT22;54756;51.140;6.952;2022-11-15T09:00:24;11.90;91.10
67974;DHT22;54756;51.140;6.952;2022-11-15T09:02:24;12.00;91.00
67974;DHT22;54756;51.140;6.952;2022-11-15T09:04:25;12.00;90.90
67974;DHT22;54756;51.140;6.952;2022-11-15T09:06:25;12.00;90.60
67974;DHT22;54756;51.140;6.952;2022-11-15T09:08:30;12.00;90.00
67974;DHT22;54756;51.140;6.952;2022-11-15T09:10:31;12.10;90.10
67974;DHT22;54756;51.140;6.952;2022-11-15T09:12:31;12.10;90.00
67974;DHT22;54756;51.140;6.952;2022-11-15T09:14:32;12.20;89.70
67974;DHT22;54756;51.140;6.952;2022-11-15T09:16:33;12.20;89.50
67974;DHT22;54756;51.140;6.952;2022-11-15T09:18:34;12.20;89.20
67974;DHT22;54756;51.140;6.952;2022-11-15T09:20:35;12.30;89.00
67974;DHT22;54756;51.140;6.952;2022-11-15T09:22:35;12.30;88.90
67974;DHT22;54756;51.140;6.952;2022-11-15T09:24:36;12.40;89.00
67974;DHT22;54756;51.140;6.952;2022-11-15T09:26:37;12.40;89.00
67974;DHT22;54756;51.140;6.952;2022-11-15T09:28:37;12.40;88.30
67974;DHT22;54756;51.140;6.952;2022-11-15T09:30:41;12.50;86.80
67974;DHT22;54756;51.140;6.952;2022-11-15T09:32:42;12.60;86.30
67974;DHT22;54756;51.140;6.952;2022-11-15T09:34:42;12.60;83.50
67974;DHT22;54756;51.140;6.952;2022-11-15T09:36:43;12.70;82.50
67974;DHT22;54756;51.140;6.952;2022-11-15T09:38:44;12.80;83.30
67974;DHT22;54756;51.140;6.952;2022-11-15T09:40:50;12.90;82.70
67974;DHT22;54756;51.140;6.952;2022-11-15T09:45:37;13.00;75.20
67974;DHT22;54756;51.140;6.952;2022-11-15T09:47:54;13.10;73.80
67974;DHT22;54756;51.140;6.952;2022-11-15T09:49:59;13.10;69.50
67974;DHT22;54756;51.140;6.952;2022-11-15T09:52:00;13.20;70.50
67974;DHT22;54756;51.140;6.952;2022-11-15T09:56:32;13.30;68.10
67974;DHT22;54756;51.140;6.952;2022-11-15T10:01:16;13.30;68.00
67974;DHT22;54756;51.140;6.952;2022-11-15T10:03:30;13.30;65.00
67974;DHT22;54756;51.140;6.952;2022-11-15T10:05:39;13.30;64.90
67974;DHT22;54756;51.140;6.952;2022-11-15T10:07:50;13.30;65.60
67974;DHT22;54756;51.140;6.952;2022-11-15T10:10:08;13.30;66.80
67974;DHT22;54756;51.140;6.952;2022-11-15T10:12:13;13.30;67.10
67974;DHT22;54756;51.140;6.952;2022-11-15T10:14:17;13.40;68.20
67974;DHT22;54756;51.140;6.952;2022-11-15T10:19:05;13.40;68.40
67974;DHT22;54756;51.140;6.952;2022-11-15T10:21:19;13.40;67.40
67974;DHT22;54756;51.140;6.952;2022-11-15T10:23:21;13.50;66.30
67974;DHT22;54756;51.140;6.952;2022-11-15T10:25:33;13.40;66.50
67974;DHT22;54756;51.140;6.952;2022-11-15T10:27:34;13.50;64.10
67974;DHT22;54756;51.140;6.952;2022-11-15T10:29:35;13.50;65.40
67974;DHT22;54756;51.140;6.952;2022-11-15T10:31:40;13.50;65.10
67974;DHT22;54756;51.140;6.952;2022-11-15T10:33:41;13.50;61.40
67974;DHT22;54756;51.140;6.952;2022-11-15T10:35:41;13.50;59.60
67974;DHT22;54756;51.140;6.952;2022-11-15T10:37:42;13.50;60.40
67974;DHT22;54756;51.140;6.952;2022-11-15T10:39:43;13.50;60.90
67974;DHT22;54756;51.140;6.952;2022-11-15T10:41:44;13.50;58.00
67974;DHT22;54756;51.140;6.952;2022-11-15T10:43:45;13.60;59.80
67974;DHT22;54756;51.140;6.952;2022-11-15T10:46:19;13.60;60.10
67974;DHT22;54756;51.140;6.952;2022-11-15T10:48:22;13.70;58.10
67974;DHT22;54756;51.140;6.952;2022-11-15T10:50:31;13.70;55.50
67974;DHT22;54756;51.140;6.952;2022-11-15T10:52:34;13.80;50.80
67974;DHT22;54756;51.140;6.952;2022-11-15T10:56:39;13.90;51.80
67974;DHT22;54756;51.140;6.952;2022-11-15T10:58:51;13.90;49.70
67974;DHT22;54756;51.140;6.952;2022-11-15T11:00:53;14.00;41.80
67974;DHT22;54756;51.140;6.952;2022-11-15T11:02:58;14.00;43.90
67974;DHT22;54756;51.140;6.952;2022-11-15T11:04:59;14.00;45.90
67974;DHT22;54756;51.140;6.952;2022-11-15T11:07:00;14.10;48.50
67974;DHT22;54756;51.140;6.952;2022-11-15T11:09:03;14.20;46.50
67974;DHT22;54756;51.140;6.952;2022-11-15T11:11:04;14.20;44.70
67974;DHT22;54756;51.140;6.952;2022-11-15T11:13:22;14.30;39.80
67974;DHT22;54756;51.140;6.952;2022-11-15T11:15:27;14.40;41.10
67974;DHT22;54756;51.140;6.952;2022-11-15T11:27:08;14.80;40.20
67974;DHT22;54756;51.140;6.952;2022-11-15T11:31:42;15.10;23.80
67974;DHT22;54756;51.140;6.952;2022-11-15T11:34:13;15.40;26.00
67974;DHT22;54756;51.140;6.952;2022-11-15T11:46:09;17.20;9.20
67974;DHT22;54756;51.140;6.952;2022-11-15T11:48:14;17.50;10.30
67974;DHT22;54756;51.140;6.952;2022-11-15T11:50:23;17.60;13.40
67974;DHT22;54756;51.140;6.952;2022-11-15T11:55:16;17.40;4.00
67974;DHT22;54756;51.140;6.952;2022-11-15T11:58:25;17.40;4.20
67974;DHT22;54756;51.140;6.952;2022-11-15T12:02:09;17.40;7.50
67974;DHT22;54756;51.140;6.952;2022-11-15T12:04:25;17.40;2.60
67974;DHT22;54756;51.140;6.952;2022-11-15T12:06:39;17.30;8.30
67974;DHT22;54756;51.140;6.952;2022-11-15T12:08:50;17.30;5.90
67974;DHT22;54756;51.140;6.952;2022-11-15T12:11:00;17.40;3.70
67974;DHT22;54756;51.140;6.952;2022-11-15T12:13:11;17.40;6.00
67974;DHT22;54756;51.140;6.952;2022-11-15T12:15:20;17.50;9.10
67974;DHT22;54756;51.140;6.952;2022-11-15T12:17:26;17.80;6.20
67974;DHT22;54756;51.140;6.952;2022-11-15T12:19:29;18.20;6.60
67974;DHT22;54756;51.140;6.952;2022-11-15T12:21:39;18.40;1.00
67974;DHT22;54756;51.140;6.952;2022-11-15T12:23:48;18.50;1.00
67974;DHT22;54756;51.140;6.952;2022-11-15T12:28:17;18.50;1.00
67974;DHT22;54756;51.140;6.952;2022-11-15T12:30:21;18.50;1.00
67974;DHT22;54756;51.140;6.952;2022-11-15T12:32:34;18.50;1.00
67974;DHT22;54756;51.140;6.952;2022-11-15T12:34:44;18.50;1.00
67974;DHT22;54756;51.140;6.952;2022-11-15T12:36:46;18.80;1.00
67974;DHT22;54756;51.140;6.952;2022-11-15T12:41:14;19.50;1.00
67974;DHT22;54756;51.140;6.952;2022-11-15T12:45:38;20.90;1.00
67974;DHT22;54756;51.140;6.952;2022-11-15T12:47:39;22.30;1.00
67974;DHT22;54756;51.140;6.952;2022-11-15T12:53:44;25.60;1.00
67974;DHT22;54756;51.140;6.952;2022-11-15T12:58:27;25.80;1.00
67974;DHT22;54756;51.140;6.952;2022-11-15T13:02:40;25.90;1.00
67974;DHT22;54756;51.140;6.952;2022-11-15T13:04:41;25.80;1.00
67974;DHT22;54756;51.140;6.952;2022-11-15T13:06:45;25.70;1.00
67974;DHT22;54756;51.140;6.952;2022-11-15T13:08:48;25.50;1.00
67974;DHT22;54756;51.140;6.952;2022-11-15T13:10:49;24.90;1.00
67974;DHT22;54756;51.140;6.952;2022-11-15T13:12:51;24.20;1.00
67974;DHT22;54756;51.140;6.952;2022-11-15T13:14:53;23.60;1.00
67974;DHT22;54756;51.140;6.952;2022-11-15T13:16:58;23.10;1.00
67974;DHT22;54756;51.140;6.952;2022-11-15T13:19:01;22.40;1.00
67974;DHT22;54756;51.140;6.952;2022-11-15T13:21:03;21.60;1.00
67974;DHT22;54756;51.140;6.952;2022-11-15T13:23:24;20.90;1.00
67974;DHT22;54756;51.140;6.952;2022-11-15T13:27:45;19.70;1.00
67974;DHT22;54756;51.140;6.952;2022-11-15T13:29:46;19.30;1.00
67974;DHT22;54756;51.140;6.952;2022-11-15T13:31:47;18.90;1.00
67974;DHT22;54756;51.140;6.952;2022-11-15T13:33:48;18.60;1.00
67974;DHT22;54756;51.140;6.952;2022-11-15T13:35:52;18.40;1.00
67974;DHT22;54756;51.140;6.952;2022-11-15T13:37:56;18.40;1.00
67974;DHT22;54756;51.140;6.952;2022-11-15T13:40:22;19.20;1.00
67974;DHT22;54756;51.140;6.952;2022-11-15T13:42:28;19.90;1.00
67974;DHT22;54756;51.140;6.952;2022-11-15T13:44:31;20.40;1.00
67974;DHT22;54756;51.140;6.952;2022-11-15T13:46:32;20.60;1.00
67974;DHT22;54756;51.140;6.952;2022-11-15T13:48:33;20.40;1.00
67974;DHT22;54756;51.140;6.952;2022-11-15T13:50:36;20.10;1.00
67974;DHT22;54756;51.140;6.952;2022-11-15T13:52:40;19.70;1.00
67974;DHT22;54756;51.140;6.952;2022-11-15T13:54:53;19.30;1.00
67974;DHT22;54756;51.140;6.952;2022-11-15T13:57:01;19.00;1.00
67974;DHT22;54756;51.140;6.952;2022-11-15T13:59:35;18.80;1.00
67974;DHT22;54756;51.140;6.952;2022-11-15T14:01:36;18.50;2.10
67974;DHT22;54756;51.140;6.952;2022-11-15T14:03:49;18.20;6.60
67974;DHT22;54756;51.140;6.952;2022-11-15T14:06:12;17.90;9.20
67974;DHT22;54756;51.140;6.952;2022-11-15T14:08:23;17.70;12.00
67974;DHT22;54756;51.140;6.952;2022-11-15T14:10:37;17.40;13.40
67974;DHT22;54756;51.140;6.952;2022-11-15T14:12:38;17.20;15.30
67974;DHT22;54756;51.140;6.952;2022-11-15T14:14:45;17.00;17.20
67974;DHT22;54756;51.140;6.952;2022-11-15T14:16:51;16.70;19.50
67974;DHT22;54756;51.140;6.952;2022-11-15T14:18:53;16.60;20.50
67974;DHT22;54756;51.140;6.952;2022-11-15T14:21:06;16.40;22.40
67974;DHT22;54756;51.140;6.952;2022-11-15T14:23:26;16.30;25.90
67974;DHT22;54756;51.140;6.952;2022-11-15T14:25:29;16.00;27.70
67974;DHT22;54756;51.140;6.952;2022-11-15T14:27:30;15.80;30.40
67974;DHT22;54756;51.140;6.952;2022-11-15T14:29:31;15.60;30.30
67974;DHT22;54756;51.140;6.952;2022-11-15T14:31:31;15.40;30.70
67974;DHT22;54756;51.140;6.952;2022-11-15T14:33:36;15.30;32.80
67974;DHT22;54756;51.140;6.952;2022-11-15T14:35:38;15.20;35.00